Date,TemperatureHighF,TemperatureAvgF,TemperatureLowF,DewpointHighF,DewpointAvgF,DewpointLowF,HumidityHigh,HumidityAvg,HumidityLow,PressureMaxIn,PressureMinIn,WindSpeedMaxMPH,WindSpeedAvgMPH,GustSpeedMaxMPH,PrecipitationSumIn
2013-3-1,69.3,66.5,62.2,54.3,52.8,52.5,72,62,58,29.63,29.53,14,8,27,0.00
2013-3-2,64.2,62.5,58.1,54.3,53.8,52.3,82,73,70,29.64,29.59,9,6,14,0.00
2013-3-3,64.2,61.3,56.3,54.4,48.2,43.7,80,63,52,29.59,29.44,18,8,26,0.00
2013-3-4,70.2,62.1,53.6,52.0,49.0,42.8,83,64,49,29.68,29.28,15,4,27,1.81
2013-3-5,66.2,58.9,50.2,51.7,47.9,43.7,91,68,50,29.74,29.62,18,7,24,0.00
2013-3-6,82.2,71.7,57.9,53.5,44.2,39.6,75,42,22,29.61,29.49,10,3,20,0.00
2013-3-7,63.7,58.0,50.9,50.6,49.1,46.1,95,73,61,29.87,29.78,20,10,35,0.02
2013-3-8,79.7,67.0,54.7,57.2,52.7,40.5,89,62,25,29.86,29.74,20,7,29,0.02
2013-3-9,65.7,62.8,58.1,57.2,54.4,51.7,92,74,64,30.01,29.86,14,5,23,0.00
2013-3-10,67.8,62.7,57.6,57.8,55.3,52.3,88,77,64,29.95,29.84,9,3,14,0.00
2013-3-11,66.6,63.0,55.6,56.7,51.8,47.8,91,68,53,30.01,29.80,14,5,28,0.00
2013-3-12,60.6,58.1,55.6,50.8,49.5,48.1,80,73,69,30.01,29.81,14,5,17,0.00
2013-3-13,66.7,62.5,57.9,53.2,51.6,49.1,76,68,61,29.81,29.68,8,4,14,0.00
2013-3-14,66.7,62.0,55.4,52.9,51.9,50.2,83,70,61,29.73,29.68,6,4,8,0.00
2013-3-25,64.4,53.2,48.0,48.4,44.5,41.6,88,74,47,30.01,29.67,10,2,14,0.00
2013-3-26,64.8,54.9,48.0,51.9,46.4,42.5,91,74,61,30.18,30.03,16,3,21,0.00
2013-3-27,73.2,61.1,55.0,53.6,51.0,48.3,86,70,47,30.16,29.97,15,5,19,0.00
2013-3-28,74.1,62.9,55.9,54.7,48.5,42.4,83,61,34,29.97,29.73,15,3,20,0.00
2013-3-29,84.6,68.3,57.4,57.0,50.3,38.3,88,56,29,30.06,29.60,13,5,17,0.00
2013-3-30,81.3,63.0,54.0,58.2,54.3,45.1,95,76,28,30.00,29.52,12,4,17,0.00
2013-3-31,80.8,72.8,64.0,55.8,49.9,39.8,65,45,31,29.56,29.21,20,5,28,0.02